AirNav   Pilot Hours Calculator
 
 1595 users online  

74CN Camatta Ranch Airstrip
Paso Robles, California, USA

GOING TO PASO ROBLES?


FAA INFORMATION EFFECTIVE 04 NOVEMBER 2021

Location

FAA Identifier: 74CN
Lat/Long: 35-28-34.8900N 120-18-32.4800W
35-28.581500N 120-18.541333W
35.4763583,-120.3090222
(estimated)
Elevation: 1358 ft. / 414 m (estimated)
From city: 21 miles SE of PASO ROBLES, CA
Time zone: UTC -7 (UTC -8 during Standard Time)
Zip code: 93461

Airport Operations

Airport use: Private use. Permission required prior to landing
Activation date: 05/2010
Control tower: no
ARTCC: LOS ANGELES CENTER
FSS: HAWTHORNE FLIGHT SERVICE STATION
Attendance: UNATNDD
Segmented circle: no

Airport Communications

WX ASOS at PRB (19 nm NW): 120.125 (805-239-3593)

Nearby radio navigation aids

VOR radial/distance  VOR name  Freq  Var
AVEr222/19.1AVENAL VOR/DME117.1016E
PRBr111/19.5PASO ROBLES VORTAC114.3016E
MQOr043/25.8MORRO BAY VORTAC112.4016E
FLWr301/31.6FELLOWS VOR/DME117.5016E
GLJr002/(33.1)GUADALUPE VOR111.0016E

Airport Services

Runway Information

Runway 11/29

Dimensions: 2515 x 35 ft. / 767 x 11 m
Surface: asphalt
RUNWAY 11  RUNWAY 29
Traffic pattern: leftleft
Obstructions: none14 ft. bldg, 412 ft. from runway

Airport Ownership and Management from official FAA records

Ownership: Privately-owned
Owner: DR. ROBERT MORRISSON
9110 CAMATTA CREEK RD
SANTA MARGARITA, CA 93453
Phone 805-238-9509
Manager: DR. ROBERT MORRISSON
9110 CAMATTA CREEK RD
SANTA MARGARITA, CA 93453
Phone 805-238-9509
EASEMENT HOLDER.

Additional Remarks

OWNER DESIRES ARPT NOT BE CHARTED.
FOR CD CTC LOS ANGELES ARTCC AT 661-575-2079.

Instrument Procedures

There are no published instrument procedures at 74CN.

Some nearby airports with instrument procedures:

KPRB - Paso Robles Municipal Airport (19 nm NW)
KSBP - San Luis County Regional Airport (22 nm SW)
KSMX - Santa Maria Public Airport/Capt G Allan Hancock Field (35 nm S)
KVBG - Vandenberg Air Force Base (46 nm S)
KLPC - Lompoc Airport (49 nm S)
 
Loc | Ops | Rwys | IFR | FBO | Links
Com | Nav | Svcs | Stats | Notes
Aerial photo
No photo
 
Sectional chart

 
Airport distance calculator
Flying to Camatta Ranch Airstrip? Find the distance to fly.

From to 74CN

Sunrise and sunset
Times for 30-Nov-2021
 Local
(UTC-8)
 Zulu
(UTC)
Morning civil twilight06:2414:24
Sunrise06:5214:52
Sunset16:4800:48
Evening civil twilight17:1601:16

Current date and time
Zulu (UTC)  30-Nov-2021 18:30:00
Local (UTC-8)  30-Nov-2021 10:30:00
 
METAR
KPRB 
20nm NW 
301753Z AUTO 00000KT 10SM CLR 13/03 A3017 RMK AO2 SLP214 T01280028 10128 20028 50008 $
KSBP 
22nm SW 
301756Z 00000KT 10SM CLR 23/02 A3007 RMK AO2 SLP182 T02330017 10233 20072 50007
KL52 
27nm SW 
301815Z AUTO 00000KT 9SM CLR 23/03 A3007 RMK A01
KSMX 
35nm S 
301751Z 15003KT 10SM CLR 19/01 A3009 RMK AO2 SLP190 T01890006 10189 20061 51016
TAF
KPRB 
20nm NW 
300546Z 3006/0106 VRB03KT P6SM SKC FM301100 00000KT P6SM SKC FM302100 12010KT P6SM SKC FM010400 VRB03KT P6SM SKC AMD NOT SKED
KSBP 
22nm SW 
300546Z 3006/0106 VRB03KT P6SM SKC FM302000 32007KT P6SM SKC FM010300 VRB03KT P6SM SKC
NOTAMs
Click for the latest NOTAMs
NOTAMs are issued by the DoD/FAA and will open in a separate window not controlled by AirNav.

 

 
 

Would you like to see your business listed on this page?

 If your business provides an interesting product or service to pilots, flight crews, aircraft, or users of the Camatta Ranch Airstrip, you should consider listing it here.  To start the listing process, click on the button below
 
Add a business
 

Other Pages about Camatta Ranch Airstrip

Update a link
 
Copyright © AirNav, LLC. All rights reserved. Privacy Policy  Contact